createdAt,value
2023-05-11T00:01:46.146Z,50.10
2023-05-11T00:08:28.679Z,50.74
2023-05-11T00:15:11.338Z,51.08
2023-05-11T00:21:53.556Z,51.37
2023-05-11T00:28:36.113Z,52.22
2023-05-11T00:35:18.405Z,52.60
2023-05-11T00:42:01.045Z,52.57
2023-05-11T00:48:44.328Z,52.54
2023-05-11T00:55:27.564Z,53.11
2023-05-11T01:02:10.147Z,53.95
2023-05-11T01:09:09.769Z,53.75
2023-05-11T01:15:56.496Z,53.97
2023-05-11T01:22:54.523Z,54.05
2023-05-11T01:30:15.210Z,54.47
2023-05-11T01:37:22.985Z,54.91
2023-05-11T01:44:10.642Z,54.84
2023-05-11T01:50:54.601Z,54.97
2023-05-11T01:57:38.206Z,55.37
2023-05-11T02:04:23.225Z,55.55
2023-05-11T02:11:07.340Z,56.01
2023-05-11T02:17:52.072Z,56.45
2023-05-11T02:24:35.749Z,57.25
2023-05-11T02:31:25.341Z,57.47
2023-05-11T02:38:09.338Z,57.62
2023-05-11T02:45:03.828Z,57.89
2023-05-11T02:51:50.579Z,58.66
2023-05-11T02:58:32.995Z,59.24
2023-05-11T03:05:28.522Z,59.16
2023-05-11T03:12:11.559Z,59.11
2023-05-11T03:18:55.990Z,59.23
2023-05-11T03:25:39.248Z,59.19
2023-05-11T03:32:21.733Z,59.13
2023-05-11T03:39:05.420Z,59.21
2023-05-11T03:45:52.305Z,59.06
2023-05-11T03:52:36.361Z,59.06
2023-05-11T03:59:19.067Z,58.93
2023-05-11T04:06:01.451Z,58.71
2023-05-11T04:12:43.888Z,58.59
2023-05-11T04:19:26.111Z,57.80
2023-05-11T04:26:08.292Z,57.29
2023-05-11T04:32:50.535Z,56.50
2023-05-11T04:39:34.259Z,55.50
2023-05-11T04:46:16.633Z,54.75
2023-05-11T04:52:58.882Z,54.38
2023-05-11T04:59:41.210Z,53.60
2023-05-11T05:06:23.682Z,53.16
2023-05-11T05:13:06.709Z,52.63
2023-05-11T05:19:48.998Z,52.67
2023-05-11T05:26:31.609Z,52.60
2023-05-11T05:33:14.640Z,52.67
2023-05-11T05:39:57.342Z,53.39
2023-05-11T05:46:40.155Z,52.85
2023-05-11T05:53:22.624Z,51.30
2023-05-11T06:00:05.869Z,48.65
2023-05-11T06:06:56.072Z,48.08
2023-05-11T06:13:38.962Z,47.62
2023-05-11T06:20:21.850Z,47.44
2023-05-11T06:27:04.279Z,45.93
2023-05-11T06:33:47.847Z,45.49
2023-05-11T06:40:37.304Z,43.77
2023-05-11T06:47:19.700Z,42.58
2023-05-11T06:54:01.971Z,40.86
2023-05-11T07:00:44.164Z,41.07
2023-05-11T07:07:26.553Z,41.02
2023-05-11T07:14:08.771Z,39.45
2023-05-11T07:20:51.034Z,39.33
2023-05-11T07:27:34.882Z,39.04
2023-05-11T07:34:17.138Z,37.45
2023-05-11T07:40:59.920Z,37.11
2023-05-11T07:47:42.219Z,34.74
2023-05-11T07:54:24.430Z,34.49
2023-05-11T08:01:07.252Z,34.07
2023-05-11T08:07:49.698Z,33.22
2023-05-11T08:14:32.874Z,33.55
2023-05-11T08:21:15.212Z,31.53
2023-05-11T08:27:57.661Z,30.54
2023-05-11T08:34:40.094Z,30.24
2023-05-11T08:41:23.425Z,29.83
2023-05-11T08:48:06.389Z,29.09
2023-05-11T08:54:49.007Z,28.16
2023-05-11T09:01:31.980Z,27.75
2023-05-11T09:08:15.856Z,29.24
2023-05-11T09:15:01.959Z,28.16
2023-05-11T09:21:44.655Z,27.29
2023-05-11T09:28:27.696Z,27.52
2023-05-11T09:35:26.859Z,26.45
2023-05-11T09:42:13.829Z,26.76
2023-05-11T09:49:01.167Z,25.71
2023-05-11T09:55:54.953Z,25.95
2023-05-11T10:02:37.262Z,26.37
2023-05-11T10:09:25.628Z,25.92
2023-05-11T10:16:10.275Z,25.50
2023-05-11T10:22:55.231Z,25.68
2023-05-11T10:29:38.247Z,25.01
2023-05-11T10:36:23.872Z,25.03
2023-05-11T10:43:54.181Z,24.75
2023-05-11T10:50:48.439Z,23.84
2023-05-11T10:58:13.313Z,24.56
2023-05-11T11:04:56.549Z,23.59
2023-05-11T11:11:41.102Z,23.87
2023-05-11T11:18:33.573Z,23.29
2023-05-11T11:25:36.856Z,22.86
2023-05-11T11:32:23.148Z,23.54
2023-05-11T11:39:05.678Z,23.41
2023-05-11T11:45:59.722Z,23.07
2023-05-11T11:52:42.026Z,22.09
2023-05-11T11:59:24.570Z,22.84
2023-05-11T12:06:09.198Z,22.51
2023-05-11T12:12:58.585Z,25.64
2023-05-11T12:19:44.350Z,23.84
2023-05-11T12:26:29.924Z,22.52
2023-05-11T12:33:15.850Z,22.80
2023-05-11T12:39:59.667Z,22.29
2023-05-11T12:46:42.143Z,22.25
2023-05-11T12:53:24.432Z,21.71
2023-05-11T13:00:11.862Z,22.19
2023-05-11T13:06:54.396Z,22.00
2023-05-11T13:13:37.805Z,22.12
2023-05-11T13:20:24.580Z,22.44
2023-05-11T13:27:07.063Z,22.32
2023-05-11T13:33:53.226Z,21.94
2023-05-11T13:40:35.854Z,21.14
2023-05-11T13:47:18.133Z,21.16
2023-05-11T13:54:02.548Z,21.35
2023-05-11T14:00:56.466Z,20.86
2023-05-11T14:07:48.248Z,20.67
2023-05-11T14:14:31.353Z,21.02
2023-05-11T14:21:13.707Z,21.35
2023-05-11T14:27:55.977Z,22.21
2023-05-11T14:34:38.459Z,21.76
2023-05-11T14:41:21.364Z,22.09
2023-05-11T14:48:04.957Z,22.60
2023-05-11T14:54:51.293Z,22.75
2023-05-11T15:01:34.896Z,21.87
2023-05-11T15:08:29.013Z,22.48
2023-05-11T15:15:13.015Z,22.67
2023-05-11T15:21:55.997Z,22.52
2023-05-11T15:28:38.691Z,22.64
2023-05-11T15:35:21.790Z,22.12
2023-05-11T15:42:05.880Z,22.78
2023-05-11T15:48:48.257Z,22.77
2023-05-11T15:55:30.646Z,22.94
2023-05-11T16:02:13.044Z,23.44
2023-05-11T16:08:55.936Z,23.91
2023-05-11T16:15:38.382Z,23.91
2023-05-11T16:22:21.069Z,24.71
2023-05-11T16:29:03.914Z,24.59
2023-05-11T16:35:46.802Z,24.65
2023-05-11T16:42:32.104Z,25.37
2023-05-11T16:49:14.274Z,26.20
2023-05-11T16:55:57.046Z,26.34
2023-05-11T17:02:39.925Z,27.09
2023-05-11T17:09:22.329Z,27.19
2023-05-11T17:16:05.170Z,28.00
2023-05-11T17:22:47.701Z,28.19
2023-05-11T17:29:30.027Z,28.70
2023-05-11T17:36:12.850Z,29.32
2023-05-11T17:42:55.102Z,29.49
2023-05-11T17:49:37.344Z,30.28
2023-05-11T17:56:19.717Z,30.61
2023-05-11T18:03:02.059Z,31.40
2023-05-11T18:09:44.616Z,32.94
2023-05-11T18:16:26.876Z,34.33
2023-05-11T18:23:09.171Z,35.38
2023-05-11T18:29:51.914Z,35.69
2023-05-11T18:36:34.564Z,36.45
2023-05-11T18:43:16.902Z,36.68
2023-05-11T18:49:59.064Z,37.13
2023-05-11T18:56:41.355Z,38.10
2023-05-11T19:03:23.672Z,39.29
2023-05-11T19:10:08.153Z,39.99
2023-05-11T19:16:50.539Z,40.25
2023-05-11T19:23:33.504Z,40.98
2023-05-11T19:30:15.684Z,41.98
2023-05-11T19:36:57.866Z,42.36
2023-05-11T19:43:40.260Z,42.28
2023-05-11T19:50:24.395Z,42.02
2023-05-11T19:57:08.468Z,42.01
2023-05-11T20:03:52.502Z,42.29
2023-05-11T20:10:35.774Z,43.35
2023-05-11T20:17:18.126Z,43.33
2023-05-11T20:24:03.620Z,43.94
2023-05-11T20:30:46.322Z,44.14
2023-05-11T20:37:31.961Z,44.52
2023-05-11T20:44:14.316Z,45.37
2023-05-11T20:50:56.618Z,45.90
2023-05-11T20:57:39.586Z,46.01
2023-05-11T21:04:22.043Z,46.21
2023-05-11T21:11:04.663Z,46.32
2023-05-11T21:17:46.929Z,46.61
2023-05-11T21:24:29.207Z,46.74
2023-05-11T21:31:11.644Z,47.56
2023-05-11T21:37:54.181Z,48.26
2023-05-11T21:44:36.478Z,48.67
2023-05-11T21:51:18.684Z,49.16
2023-05-11T21:58:02.316Z,49.62
2023-05-11T22:04:46.317Z,49.62
2023-05-11T22:11:28.667Z,49.51
2023-05-11T22:18:10.949Z,49.61
2023-05-11T22:24:53.693Z,49.75
2023-05-11T22:31:36.034Z,50.49
2023-05-11T22:38:18.404Z,50.42
2023-05-11T22:45:00.853Z,50.37
2023-05-11T22:51:46.180Z,51.33
2023-05-11T22:58:28.726Z,51.70
2023-05-11T23:05:11.248Z,52.52
2023-05-11T23:11:54.007Z,52.17
2023-05-11T23:18:36.742Z,52.14
2023-05-11T23:25:20.084Z,52.46
2023-05-11T23:32:03.486Z,52.18
2023-05-11T23:38:45.679Z,52.01
2023-05-11T23:45:28.206Z,52.80
2023-05-11T23:52:10.387Z,53.12
2023-05-11T23:58:52.630Z,53.26
